Accueil
METAR-TAF:

METAR-TAF

Aéroports :

Aurillac, France

Aéroport d'Aurillac

latitude: 44-53N, longitude: 002-25E, altitude: 639 m

Observation

Le bulletin a été fait il y a 32 minutes, à 03:30 UTC
Vent 3 kt de est
Température -3°C
Humidité 93%
Pression 1009 hPa
Visibilité: 6000 m

METAR: LFLW 250330Z AUTO 08003KT 6000 NSC M03/M04 Q1009

Heure: 05:02 (04:02 UTC)

Prévision

Le bulletin a été fait il y a 14 heures et 2 minutes, à 14:00 UTC
Prévision valable du 24 à 15 UTC au 24 à 24 UTC
Vent 5 kt de ouest/nord-ouest
Visibilité 10 km ou plus
pas de nuages en-dessous de 1500 mètres et pas de cumulonimbus.
Evoluant progressivement
du 24 à 18 UTC au 24 à 21 UTC
Vent 3 kt de direction variable

TAF: LFLW 241400Z 2415/2424 30005KT CAVOK BECMG 2418/2421 VRB03KT

Observations et prévisions météorologiques de plus de 4000 aéroports (messages METAR et TAF).

Les stations disponibles sont représentées par des disques jaunes et rouges sur la carte.

Passer la souris dessus pour voir le nom de la station.

Cliquer dessus pour voir les observations et prévisions météorologiques.

Pour changer de carte: cliquez sur les boutons verts avec une croix noire pour zoomer, sur le bouton vert avec un tiret pour effectuer un zoom arrière, ou sur les flèches vertes pour les cartes adjacentes.


METAR-TAF: